createdAt,value
2022-09-14T00:02:57.457Z,96.31
2022-09-14T00:07:58.746Z,96.46
2022-09-14T00:12:59.845Z,96.74
2022-09-14T00:18:01.025Z,96.91
2022-09-14T00:23:03.137Z,96.94
2022-09-14T00:28:04.282Z,97.10
2022-09-14T00:33:05.457Z,97.53
2022-09-14T00:38:09.075Z,97.29
2022-09-14T00:43:15.344Z,97.78
2022-09-14T00:48:16.792Z,97.93
2022-09-14T00:53:18.033Z,98.14
2022-09-14T00:58:19.887Z,98.24
2022-09-14T01:03:22.245Z,98.31
2022-09-14T01:08:30.169Z,98.33
2022-09-14T01:14:09.174Z,98.68
2022-09-14T01:19:32.874Z,98.92
2022-09-14T01:24:47.259Z,99.10
2022-09-14T01:30:02.729Z,98.87
2022-09-14T01:35:14.106Z,98.76
2022-09-14T01:40:41.744Z,98.87
2022-09-14T01:45:52.137Z,98.89
2022-09-14T01:50:57.712Z,99.11
2022-09-14T01:56:14.447Z,99.66
2022-09-14T02:01:29.599Z,99.32
2022-09-14T02:06:43.731Z,99.53
2022-09-14T02:11:46.126Z,99.67
2022-09-14T02:16:47.607Z,99.87
2022-09-14T02:21:49.436Z,100.00
2022-09-14T02:26:53.088Z,100.00
2022-09-14T02:32:09.908Z,100.00
2022-09-14T02:37:18.603Z,100.00
2022-09-14T02:42:34.095Z,100.00
2022-09-14T02:48:04.587Z,100.00
2022-09-14T02:53:43.378Z,100.00
2022-09-14T02:58:45.264Z,99.99
2022-09-14T03:03:46.733Z,100.00
2022-09-14T03:08:48.870Z,99.97
2022-09-14T03:13:50.004Z,100.00
2022-09-14T03:18:51.323Z,100.00
2022-09-14T03:23:54.756Z,100.00
2022-09-14T03:28:58.314Z,100.00
2022-09-14T03:34:00.815Z,100.00
2022-09-14T03:39:02.821Z,100.00
2022-09-14T03:44:04.105Z,100.00
2022-09-14T03:49:05.274Z,100.00
2022-09-14T03:54:06.356Z,100.00
2022-09-14T03:59:08.890Z,100.00
2022-09-14T04:04:10.075Z,100.00
2022-09-14T04:09:11.779Z,100.00
2022-09-14T04:14:13.756Z,100.00
2022-09-14T04:19:15.328Z,100.00
2022-09-14T04:24:17.779Z,100.00
2022-09-14T04:29:19.263Z,100.00
2022-09-14T04:34:21.420Z,100.00
2022-09-14T04:39:23.373Z,100.00
2022-09-14T04:44:24.604Z,100.00
2022-09-14T04:49:25.717Z,100.00
2022-09-14T04:54:27.298Z,100.00
2022-09-14T04:59:28.515Z,100.00
2022-09-14T05:04:29.646Z,100.00
2022-09-14T05:09:30.788Z,100.00
2022-09-14T05:14:31.881Z,100.00
2022-09-14T05:19:33.116Z,99.87
2022-09-14T05:24:34.318Z,99.25
2022-09-14T05:29:35.690Z,98.31
2022-09-14T05:34:36.868Z,97.27
2022-09-14T05:39:38.152Z,96.36
2022-09-14T05:44:39.322Z,95.15
2022-09-14T05:49:40.474Z,94.31
2022-09-14T05:54:42.704Z,93.59
2022-09-14T05:59:43.971Z,93.07
2022-09-14T06:04:45.797Z,91.77
2022-09-14T06:09:46.980Z,89.48
2022-09-14T06:14:48.166Z,84.77
2022-09-14T06:19:49.363Z,81.83
2022-09-14T06:24:50.519Z,77.62
2022-09-14T06:29:53.901Z,73.47
2022-09-14T06:34:55.043Z,71.16
2022-09-14T06:39:57.421Z,66.86
2022-09-14T06:44:58.710Z,63.16
2022-09-14T06:49:59.895Z,56.90
2022-09-14T06:55:01.403Z,54.80
2022-09-14T07:00:04.863Z,55.68
2022-09-14T07:05:06.354Z,57.74
2022-09-14T07:10:07.834Z,58.09
2022-09-14T07:15:09.180Z,60.18
2022-09-14T07:20:10.645Z,60.13
2022-09-14T07:25:11.805Z,59.47
2022-09-14T07:30:13.002Z,55.89
2022-09-14T07:35:14.213Z,56.68
2022-09-14T07:40:17.665Z,55.84
2022-09-14T07:45:20.135Z,57.50
2022-09-14T07:50:21.278Z,56.93
2022-09-14T07:55:22.605Z,58.09
2022-09-14T08:00:24.867Z,56.13
2022-09-14T08:05:26.128Z,56.07
2022-09-14T08:10:27.276Z,57.45
2022-09-14T08:15:28.817Z,58.32
2022-09-14T08:20:30.034Z,57.47
2022-09-14T08:25:31.179Z,57.12
2022-09-14T08:30:33.291Z,57.46
2022-09-14T08:35:57.403Z,57.07
2022-09-14T08:41:09.001Z,55.97
2022-09-14T08:46:35.505Z,57.10
2022-09-14T08:51:36.805Z,55.94
2022-09-14T08:56:44.001Z,56.99
2022-09-14T09:02:04.017Z,56.79
2022-09-14T09:07:23.878Z,57.88
2022-09-14T09:12:29.115Z,58.90
2022-09-14T09:17:35.782Z,56.04
2022-09-14T09:23:02.293Z,54.76
2022-09-14T09:28:12.564Z,55.17
2022-09-14T09:33:20.896Z,55.07
2022-09-14T09:38:25.148Z,55.26
2022-09-14T09:43:47.890Z,53.69
2022-09-14T09:48:48.743Z,53.34
2022-09-14T09:53:55.233Z,52.58
2022-09-14T09:58:56.841Z,50.81
2022-09-14T10:04:09.464Z,50.64
2022-09-14T10:09:20.929Z,50.96
2022-09-14T10:14:22.463Z,51.33
2022-09-14T10:19:28.401Z,50.34
2022-09-14T10:24:33.643Z,51.04
2022-09-14T10:29:41.741Z,49.85
2022-09-14T10:34:42.989Z,49.40
2022-09-14T10:39:55.992Z,49.30
2022-09-14T10:45:18.224Z,49.37
2022-09-14T10:50:46.522Z,49.74
2022-09-14T10:55:50.647Z,50.17
2022-09-14T11:01:07.986Z,51.20
2022-09-14T11:06:39.037Z,52.36
2022-09-14T11:12:06.126Z,53.77
2022-09-14T11:17:15.657Z,54.80
2022-09-14T11:22:26.025Z,55.73
2022-09-14T11:27:57.657Z,56.78
2022-09-14T11:33:18.234Z,57.53
2022-09-14T11:38:24.108Z,57.91
2022-09-14T11:43:33.246Z,57.44
2022-09-14T11:48:55.353Z,57.11
2022-09-14T11:53:56.986Z,56.51
2022-09-14T11:59:05.740Z,55.26
2022-09-14T12:04:13.213Z,54.95
2022-09-14T12:09:20.110Z,53.52
2022-09-14T12:14:26.233Z,53.36
2022-09-14T12:19:27.629Z,53.31
2022-09-14T12:24:30.576Z,52.37
2022-09-14T12:29:33.331Z,52.78
2022-09-14T12:34:34.993Z,52.88
2022-09-14T12:39:37.172Z,52.46
2022-09-14T12:44:42.630Z,51.77
2022-09-14T12:49:44.240Z,52.22
2022-09-14T12:55:04.739Z,52.37
2022-09-14T13:00:12.420Z,52.00
2022-09-14T13:05:16.878Z,51.23
2022-09-14T13:10:23.910Z,51.37
2022-09-14T13:15:26.596Z,50.60
2022-09-14T13:20:30.084Z,50.61
2022-09-14T13:25:37.197Z,51.01
2022-09-14T13:30:41.027Z,51.32
2022-09-14T13:35:47.165Z,51.75
2022-09-14T13:40:51.196Z,51.33
2022-09-14T13:45:52.597Z,51.36
2022-09-14T13:50:56.237Z,52.28
2022-09-14T13:55:57.443Z,52.48
2022-09-14T14:01:04.119Z,52.64
2022-09-14T14:06:29.037Z,53.16
2022-09-14T14:11:41.825Z,52.96
2022-09-14T14:17:21.335Z,52.54
2022-09-14T14:22:30.944Z,52.70
2022-09-14T14:27:46.692Z,52.95
2022-09-14T14:32:53.954Z,53.28
2022-09-14T14:37:59.607Z,54.09
2022-09-14T14:43:06.195Z,54.64
2022-09-14T14:48:10.231Z,55.51
2022-09-14T14:53:11.518Z,56.21
2022-09-14T14:58:19.021Z,57.01
2022-09-14T15:03:20.768Z,57.64
2022-09-14T15:08:22.115Z,57.75
2022-09-14T15:13:23.343Z,58.16
2022-09-14T15:18:24.599Z,58.22
2022-09-14T15:23:26.873Z,58.41
2022-09-14T15:28:30.911Z,58.86
2022-09-14T15:33:35.683Z,59.01
2022-09-14T15:38:37.156Z,58.94
2022-09-14T15:43:38.262Z,59.20
2022-09-14T15:48:39.463Z,59.20
2022-09-14T15:53:41.468Z,59.53
2022-09-14T15:58:47.819Z,59.84
2022-09-14T16:04:07.313Z,60.13
2022-09-14T16:09:14.282Z,60.55
2022-09-14T16:14:15.683Z,60.77
2022-09-14T16:19:17.147Z,61.08
2022-09-14T16:24:20.644Z,61.31
2022-09-14T16:29:24.782Z,61.71
2022-09-14T16:34:29.178Z,62.13
2022-09-14T16:39:30.992Z,62.63
2022-09-14T16:44:32.241Z,63.00
2022-09-14T16:49:33.509Z,63.57
2022-09-14T16:54:34.730Z,63.92
2022-09-14T16:59:38.146Z,64.54
2022-09-14T17:04:39.460Z,64.92
2022-09-14T17:09:40.684Z,65.14
2022-09-14T17:14:42.045Z,65.57
2022-09-14T17:19:47.130Z,65.78
2022-09-14T17:24:49.973Z,66.30
2022-09-14T17:29:52.430Z,66.76
2022-09-14T17:34:54.600Z,67.11
2022-09-14T17:39:55.840Z,67.17
2022-09-14T17:44:58.428Z,67.12
2022-09-14T17:50:01.797Z,67.30
2022-09-14T17:55:07.919Z,67.52
2022-09-14T18:00:11.951Z,67.85
2022-09-14T18:05:13.135Z,67.99
2022-09-14T18:10:19.410Z,68.15
2022-09-14T18:15:21.598Z,68.49
2022-09-14T18:20:26.170Z,68.55
2022-09-14T18:25:28.897Z,68.79
2022-09-14T18:30:30.190Z,68.87
2022-09-14T18:35:33.642Z,69.18
2022-09-14T18:40:36.565Z,69.28
2022-09-14T18:45:37.799Z,69.35
2022-09-14T18:50:41.594Z,69.45
2022-09-14T18:55:42.917Z,69.70
2022-09-14T19:00:44.295Z,69.97
2022-09-14T19:05:46.668Z,70.24
2022-09-14T19:10:47.987Z,70.54
2022-09-14T19:15:49.243Z,70.63
2022-09-14T19:21:05.755Z,70.93
2022-09-14T19:26:11.889Z,71.12
2022-09-14T19:31:16.186Z,71.50
2022-09-14T19:36:20.346Z,71.96
2022-09-14T19:41:22.586Z,72.61
2022-09-14T19:46:24.331Z,72.88
2022-09-14T19:51:28.172Z,73.19
2022-09-14T19:56:31.407Z,73.15
2022-09-14T20:01:34.589Z,73.10
2022-09-14T20:06:41.916Z,73.04
2022-09-14T20:11:47.453Z,73.08
2022-09-14T20:16:54.890Z,73.19
2022-09-14T20:21:56.823Z,73.42
2022-09-14T20:26:59.790Z,73.34
2022-09-14T20:32:03.370Z,73.45
2022-09-14T20:37:04.604Z,73.54
2022-09-14T20:42:06.108Z,73.62
2022-09-14T20:47:07.286Z,73.77
2022-09-14T20:52:08.885Z,73.92
2022-09-14T20:57:10.106Z,74.01
2022-09-14T21:02:11.435Z,74.19
2022-09-14T21:07:12.731Z,74.27
2022-09-14T21:12:14.569Z,74.42
2022-09-14T21:17:16.906Z,74.57
2022-09-14T21:22:18.091Z,74.55
2022-09-14T21:27:19.962Z,74.82
2022-09-14T21:32:21.179Z,74.89
2022-09-14T21:37:25.844Z,75.02
2022-09-14T21:42:28.761Z,75.14
2022-09-14T21:47:30.385Z,75.05
2022-09-14T21:52:31.688Z,75.22
2022-09-14T21:57:33.062Z,75.21
2022-09-14T22:02:34.660Z,75.32
2022-09-14T22:07:35.909Z,75.44
2022-09-14T22:12:38.833Z,75.66
2022-09-14T22:17:41.113Z,75.80
2022-09-14T22:22:43.370Z,75.93
2022-09-14T22:27:44.502Z,76.02
2022-09-14T22:32:45.690Z,76.12
2022-09-14T22:37:48.116Z,76.25
2022-09-14T22:42:49.229Z,76.37
2022-09-14T22:47:50.428Z,76.73
2022-09-14T22:52:51.557Z,76.72
2022-09-14T22:57:52.712Z,77.03
2022-09-14T23:02:54.259Z,77.37
2022-09-14T23:07:56.823Z,77.54
2022-09-14T23:12:58.425Z,77.37
2022-09-14T23:18:00.080Z,77.53
2022-09-14T23:23:01.206Z,77.58
2022-09-14T23:28:04.729Z,77.74
2022-09-14T23:33:05.957Z,77.89
2022-09-14T23:38:07.136Z,78.14
2022-09-14T23:43:08.294Z,78.13
2022-09-14T23:48:09.410Z,78.34
2022-09-14T23:53:10.980Z,78.32
2022-09-14T23:58:12.349Z,78.37
